sensor_id;sensor_type;location;lat;lon;timestamp;temperature;humidity
16964;DHT22;8598;50.508;10.436;2022-07-22T00:02:25;17.20;99.90
16964;DHT22;8598;50.508;10.436;2022-07-22T00:04:55;17.00;99.90
16964;DHT22;8598;50.508;10.436;2022-07-22T00:07:21;17.00;99.90
16964;DHT22;8598;50.508;10.436;2022-07-22T00:09:48;16.90;99.90
16964;DHT22;8598;50.508;10.436;2022-07-22T00:12:15;16.90;99.90
16964;DHT22;8598;50.508;10.436;2022-07-22T00:14:42;16.90;99.90
16964;DHT22;8598;50.508;10.436;2022-07-22T00:17:10;16.70;99.90
16964;DHT22;8598;50.508;10.436;2022-07-22T00:19:36;16.60;99.90
16964;DHT22;8598;50.508;10.436;2022-07-22T00:22:03;16.70;99.90
16964;DHT22;8598;50.508;10.436;2022-07-22T00:24:30;16.50;99.90
16964;DHT22;8598;50.508;10.436;2022-07-22T00:26:57;16.50;99.90
16964;DHT22;8598;50.508;10.436;2022-07-22T00:29:23;16.50;99.90
16964;DHT22;8598;50.508;10.436;2022-07-22T00:31:50;16.40;99.90
16964;DHT22;8598;50.508;10.436;2022-07-22T00:34:18;16.40;99.90
16964;DHT22;8598;50.508;10.436;2022-07-22T00:36:45;16.30;99.90
16964;DHT22;8598;50.508;10.436;2022-07-22T00:39:11;16.20;99.90
16964;DHT22;8598;50.508;10.436;2022-07-22T00:41:38;16.20;99.90
16964;DHT22;8598;50.508;10.436;2022-07-22T00:44:07;16.10;99.90
16964;DHT22;8598;50.508;10.436;2022-07-22T00:46:34;16.00;99.90
16964;DHT22;8598;50.508;10.436;2022-07-22T00:49:02;15.80;99.90
16964;DHT22;8598;50.508;10.436;2022-07-22T00:51:31;15.70;99.90
16964;DHT22;8598;50.508;10.436;2022-07-22T00:53:59;15.50;99.90
16964;DHT22;8598;50.508;10.436;2022-07-22T00:56:26;15.40;99.90
16964;DHT22;8598;50.508;10.436;2022-07-22T00:58:56;15.40;99.90
16964;DHT22;8598;50.508;10.436;2022-07-22T01:01:23;15.40;99.90
16964;DHT22;8598;50.508;10.436;2022-07-22T01:03:50;15.30;99.90
16964;DHT22;8598;50.508;10.436;2022-07-22T01:06:17;15.30;99.90
16964;DHT22;8598;50.508;10.436;2022-07-22T01:08:45;15.60;99.90
16964;DHT22;8598;50.508;10.436;2022-07-22T01:11:14;15.70;99.90
16964;DHT22;8598;50.508;10.436;2022-07-22T01:13:41;15.80;99.90
16964;DHT22;8598;50.508;10.436;2022-07-22T01:16:10;15.90;99.90
16964;DHT22;8598;50.508;10.436;2022-07-22T01:18:37;15.90;99.90
16964;DHT22;8598;50.508;10.436;2022-07-22T01:21:07;15.90;99.90
16964;DHT22;8598;50.508;10.436;2022-07-22T01:23:34;15.80;99.90
16964;DHT22;8598;50.508;10.436;2022-07-22T01:26:01;15.80;99.90
16964;DHT22;8598;50.508;10.436;2022-07-22T01:28:28;15.70;99.90
16964;DHT22;8598;50.508;10.436;2022-07-22T01:30:58;15.60;99.90
16964;DHT22;8598;50.508;10.436;2022-07-22T01:33:25;15.50;99.90
16964;DHT22;8598;50.508;10.436;2022-07-22T01:35:52;15.60;99.90
16964;DHT22;8598;50.508;10.436;2022-07-22T01:38:20;15.50;99.90
16964;DHT22;8598;50.508;10.436;2022-07-22T01:40:47;15.60;99.90
16964;DHT22;8598;50.508;10.436;2022-07-22T01:43:15;15.50;99.90
16964;DHT22;8598;50.508;10.436;2022-07-22T01:45:43;15.50;99.90
16964;DHT22;8598;50.508;10.436;2022-07-22T01:48:10;15.40;99.90
16964;DHT22;8598;50.508;10.436;2022-07-22T01:50:37;15.40;99.90
16964;DHT22;8598;50.508;10.436;2022-07-22T01:53:04;15.40;99.90
16964;DHT22;8598;50.508;10.436;2022-07-22T01:55:32;15.30;99.90
16964;DHT22;8598;50.508;10.436;2022-07-22T01:57:58;15.30;99.90
16964;DHT22;8598;50.508;10.436;2022-07-22T02:00:25;15.20;99.90
16964;DHT22;8598;50.508;10.436;2022-07-22T02:02:52;15.10;99.90
16964;DHT22;8598;50.508;10.436;2022-07-22T02:05:18;15.10;99.90
16964;DHT22;8598;50.508;10.436;2022-07-22T02:07:45;15.00;99.90
16964;DHT22;8598;50.508;10.436;2022-07-22T02:10:11;14.90;99.90
16964;DHT22;8598;50.508;10.436;2022-07-22T02:12:39;15.10;99.90
16964;DHT22;8598;50.508;10.436;2022-07-22T02:15:07;15.00;99.90
16964;DHT22;8598;50.508;10.436;2022-07-22T02:17:34;15.10;99.90
16964;DHT22;8598;50.508;10.436;2022-07-22T02:20:02;15.10;99.90
16964;DHT22;8598;50.508;10.436;2022-07-22T02:22:29;15.30;99.90
16964;DHT22;8598;50.508;10.436;2022-07-22T02:24:56;15.30;99.90
16964;DHT22;8598;50.508;10.436;2022-07-22T02:27:22;15.30;99.90
16964;DHT22;8598;50.508;10.436;2022-07-22T02:29:50;15.20;99.90
16964;DHT22;8598;50.508;10.436;2022-07-22T02:32:17;15.30;99.90
16964;DHT22;8598;50.508;10.436;2022-07-22T02:34:43;15.20;99.90
16964;DHT22;8598;50.508;10.436;2022-07-22T02:37:10;15.30;99.90
16964;DHT22;8598;50.508;10.436;2022-07-22T02:39:37;15.30;99.90
16964;DHT22;8598;50.508;10.436;2022-07-22T02:42:03;15.50;99.90
16964;DHT22;8598;50.508;10.436;2022-07-22T02:44:30;15.60;99.90
16964;DHT22;8598;50.508;10.436;2022-07-22T02:46:58;15.60;99.90
16964;DHT22;8598;50.508;10.436;2022-07-22T02:49:25;15.60;99.90
16964;DHT22;8598;50.508;10.436;2022-07-22T02:51:51;15.60;99.90
16964;DHT22;8598;50.508;10.436;2022-07-22T02:54:18;15.60;99.90
16964;DHT22;8598;50.508;10.436;2022-07-22T02:56:45;15.50;99.90
16964;DHT22;8598;50.508;10.436;2022-07-22T02:59:14;15.40;99.90
16964;DHT22;8598;50.508;10.436;2022-07-22T03:01:41;15.30;99.90
16964;DHT22;8598;50.508;10.436;2022-07-22T03:04:09;15.10;99.90
16964;DHT22;8598;50.508;10.436;2022-07-22T03:06:36;15.10;99.90
16964;DHT22;8598;50.508;10.436;2022-07-22T03:09:02;15.00;99.90
16964;DHT22;8598;50.508;10.436;2022-07-22T03:11:30;14.90;99.90
16964;DHT22;8598;50.508;10.436;2022-07-22T03:13:56;14.70;99.90
16964;DHT22;8598;50.508;10.436;2022-07-22T03:16:23;14.60;99.90
16964;DHT22;8598;50.508;10.436;2022-07-22T03:18:49;14.50;99.90
16964;DHT22;8598;50.508;10.436;2022-07-22T03:21:17;14.50;99.90
16964;DHT22;8598;50.508;10.436;2022-07-22T03:23:44;14.50;99.90
16964;DHT22;8598;50.508;10.436;2022-07-22T03:26:11;14.50;99.90
16964;DHT22;8598;50.508;10.436;2022-07-22T03:28:37;14.40;99.90
16964;DHT22;8598;50.508;10.436;2022-07-22T03:31:04;14.40;99.90
16964;DHT22;8598;50.508;10.436;2022-07-22T03:33:30;14.40;99.90
16964;DHT22;8598;50.508;10.436;2022-07-22T03:35:57;14.30;99.90
16964;DHT22;8598;50.508;10.436;2022-07-22T03:38:25;14.20;99.90
16964;DHT22;8598;50.508;10.436;2022-07-22T03:40:52;14.20;99.90
16964;DHT22;8598;50.508;10.436;2022-07-22T03:43:21;14.10;99.90
16964;DHT22;8598;50.508;10.436;2022-07-22T03:45:47;14.10;99.90
16964;DHT22;8598;50.508;10.436;2022-07-22T03:48:14;14.00;99.90
16964;DHT22;8598;50.508;10.436;2022-07-22T03:50:40;14.00;99.90
16964;DHT22;8598;50.508;10.436;2022-07-22T03:53:07;14.00;99.90
16964;DHT22;8598;50.508;10.436;2022-07-22T03:55:35;14.10;99.90
16964;DHT22;8598;50.508;10.436;2022-07-22T03:58:02;14.00;99.90
16964;DHT22;8598;50.508;10.436;2022-07-22T04:00:31;14.00;99.90
16964;DHT22;8598;50.508;10.436;2022-07-22T04:02:57;14.10;99.90
16964;DHT22;8598;50.508;10.436;2022-07-22T04:05:24;14.10;99.90
16964;DHT22;8598;50.508;10.436;2022-07-22T04:07:50;14.20;99.90
16964;DHT22;8598;50.508;10.436;2022-07-22T04:10:17;14.80;99.90
16964;DHT22;8598;50.508;10.436;2022-07-22T04:12:45;14.30;99.90
16964;DHT22;8598;50.508;10.436;2022-07-22T04:15:12;14.40;99.90
16964;DHT22;8598;50.508;10.436;2022-07-22T04:17:38;14.40;99.90
16964;DHT22;8598;50.508;10.436;2022-07-22T04:20:06;14.30;99.90
16964;DHT22;8598;50.508;10.436;2022-07-22T04:22:33;14.30;99.90
16964;DHT22;8598;50.508;10.436;2022-07-22T04:25:00;14.20;99.90
16964;DHT22;8598;50.508;10.436;2022-07-22T04:27:26;14.10;99.90
16964;DHT22;8598;50.508;10.436;2022-07-22T04:29:54;14.00;99.90
16964;DHT22;8598;50.508;10.436;2022-07-22T04:32:21;14.00;99.90
16964;DHT22;8598;50.508;10.436;2022-07-22T04:34:48;14.10;99.90
16964;DHT22;8598;50.508;10.436;2022-07-22T04:37:14;14.10;99.90
16964;DHT22;8598;50.508;10.436;2022-07-22T04:39:41;14.30;99.90
16964;DHT22;8598;50.508;10.436;2022-07-22T04:42:07;14.40;99.90
16964;DHT22;8598;50.508;10.436;2022-07-22T04:44:34;14.70;99.90
16964;DHT22;8598;50.508;10.436;2022-07-22T04:47:02;14.70;99.90
16964;DHT22;8598;50.508;10.436;2022-07-22T04:49:29;14.80;99.90
16964;DHT22;8598;50.508;10.436;2022-07-22T04:51:55;14.80;99.90
16964;DHT22;8598;50.508;10.436;2022-07-22T04:54:22;14.90;99.90
16964;DHT22;8598;50.508;10.436;2022-07-22T04:56:49;14.80;99.90
16964;DHT22;8598;50.508;10.436;2022-07-22T04:59:15;14.90;99.90
16964;DHT22;8598;50.508;10.436;2022-07-22T05:01:42;15.00;99.90
16964;DHT22;8598;50.508;10.436;2022-07-22T05:04:10;15.10;99.90
16964;DHT22;8598;50.508;10.436;2022-07-22T05:06:37;15.20;99.90
16964;DHT22;8598;50.508;10.436;2022-07-22T05:09:03;15.80;99.90
16964;DHT22;8598;50.508;10.436;2022-07-22T05:11:30;17.00;99.90
16964;DHT22;8598;50.508;10.436;2022-07-22T05:13:57;18.10;99.90
16964;DHT22;8598;50.508;10.436;2022-07-22T05:16:23;19.10;99.90
16964;DHT22;8598;50.508;10.436;2022-07-22T05:18:50;20.00;99.90
16964;DHT22;8598;50.508;10.436;2022-07-22T05:21:19;20.60;99.90
16964;DHT22;8598;50.508;10.436;2022-07-22T05:23:46;21.10;99.90
16964;DHT22;8598;50.508;10.436;2022-07-22T05:26:13;21.30;99.90
16964;DHT22;8598;50.508;10.436;2022-07-22T05:28:39;21.60;99.90
16964;DHT22;8598;50.508;10.436;2022-07-22T05:31:06;22.40;99.90
16964;DHT22;8598;50.508;10.436;2022-07-22T05:33:32;22.70;99.90
16964;DHT22;8598;50.508;10.436;2022-07-22T05:35:59;23.60;99.90
16964;DHT22;8598;50.508;10.436;2022-07-22T05:38:27;24.00;99.90
16964;DHT22;8598;50.508;10.436;2022-07-22T05:40:54;24.30;99.90
16964;DHT22;8598;50.508;10.436;2022-07-22T05:43:20;25.20;99.90
16964;DHT22;8598;50.508;10.436;2022-07-22T05:45:47;25.40;99.90
16964;DHT22;8598;50.508;10.436;2022-07-22T05:48:14;25.20;99.90
16964;DHT22;8598;50.508;10.436;2022-07-22T05:50:40;25.80;99.90
16964;DHT22;8598;50.508;10.436;2022-07-22T05:53:07;26.60;99.90
16964;DHT22;8598;50.508;10.436;2022-07-22T05:55:35;26.10;99.90
16964;DHT22;8598;50.508;10.436;2022-07-22T05:58:02;26.00;99.90
16964;DHT22;8598;50.508;10.436;2022-07-22T06:00:29;26.60;99.90
16964;DHT22;8598;50.508;10.436;2022-07-22T06:02:55;27.30;99.90
16964;DHT22;8598;50.508;10.436;2022-07-22T06:05:22;26.80;99.90
16964;DHT22;8598;50.508;10.436;2022-07-22T06:07:49;25.60;99.90
16964;DHT22;8598;50.508;10.436;2022-07-22T06:10:16;25.30;99.90
16964;DHT22;8598;50.508;10.436;2022-07-22T06:12:44;25.50;99.90
16964;DHT22;8598;50.508;10.436;2022-07-22T06:15:10;24.80;99.90
16964;DHT22;8598;50.508;10.436;2022-07-22T06:17:37;24.30;99.90
16964;DHT22;8598;50.508;10.436;2022-07-22T06:20:05;23.80;99.90
16964;DHT22;8598;50.508;10.436;2022-07-22T06:22:31;23.30;99.90
16964;DHT22;8598;50.508;10.436;2022-07-22T06:24:58;23.30;99.90
16964;DHT22;8598;50.508;10.436;2022-07-22T06:27:25;23.70;99.90
16964;DHT22;8598;50.508;10.436;2022-07-22T06:29:53;24.00;99.90
16964;DHT22;8598;50.508;10.436;2022-07-22T06:32:20;23.90;99.90
16964;DHT22;8598;50.508;10.436;2022-07-22T06:34:46;24.00;99.90
16964;DHT22;8598;50.508;10.436;2022-07-22T06:37:13;23.90;99.90
16964;DHT22;8598;50.508;10.436;2022-07-22T06:39:39;24.00;99.90
16964;DHT22;8598;50.508;10.436;2022-07-22T06:42:07;24.00;99.90
16964;DHT22;8598;50.508;10.436;2022-07-22T06:44:33;23.80;99.90
16964;DHT22;8598;50.508;10.436;2022-07-22T06:47:01;23.60;99.90
16964;DHT22;8598;50.508;10.436;2022-07-22T06:49:28;23.70;99.90
16964;DHT22;8598;50.508;10.436;2022-07-22T06:51:55;23.20;99.90
16964;DHT22;8598;50.508;10.436;2022-07-22T06:54:21;23.30;99.90
16964;DHT22;8598;50.508;10.436;2022-07-22T06:56:48;22.90;99.90
16964;DHT22;8598;50.508;10.436;2022-07-22T06:59:15;22.60;99.90
16964;DHT22;8598;50.508;10.436;2022-07-22T07:01:41;22.80;99.90
16964;DHT22;8598;50.508;10.436;2022-07-22T07:04:09;22.60;99.90
16964;DHT22;8598;50.508;10.436;2022-07-22T07:06:36;22.50;99.90
16964;DHT22;8598;50.508;10.436;2022-07-22T07:09:02;22.70;99.90
16964;DHT22;8598;50.508;10.436;2022-07-22T07:11:29;22.60;99.90
16964;DHT22;8598;50.508;10.436;2022-07-22T07:13:56;22.40;99.90
16964;DHT22;8598;50.508;10.436;2022-07-22T07:16:22;22.70;99.90
16964;DHT22;8598;50.508;10.436;2022-07-22T07:18:49;23.10;99.90
16964;DHT22;8598;50.508;10.436;2022-07-22T07:21:17;23.10;99.90
16964;DHT22;8598;50.508;10.436;2022-07-22T07:23:44;23.20;99.90
16964;DHT22;8598;50.508;10.436;2022-07-22T07:26:10;23.00;99.90
16964;DHT22;8598;50.508;10.436;2022-07-22T07:28:37;22.90;99.90
16964;DHT22;8598;50.508;10.436;2022-07-22T07:31:03;23.00;99.90
16964;DHT22;8598;50.508;10.436;2022-07-22T07:33:30;23.70;99.90
16964;DHT22;8598;50.508;10.436;2022-07-22T07:35:57;25.00;99.90
16964;DHT22;8598;50.508;10.436;2022-07-22T07:38:25;25.60;99.90
16964;DHT22;8598;50.508;10.436;2022-07-22T07:40:52;26.20;99.90
16964;DHT22;8598;50.508;10.436;2022-07-22T07:43:18;26.70;99.90
16964;DHT22;8598;50.508;10.436;2022-07-22T07:45:45;27.30;99.90
16964;DHT22;8598;50.508;10.436;2022-07-22T07:48:12;27.60;99.90
16964;DHT22;8598;50.508;10.436;2022-07-22T07:50:42;28.60;99.90
16964;DHT22;8598;50.508;10.436;2022-07-22T07:53:08;28.90;99.90
16964;DHT22;8598;50.508;10.436;2022-07-22T07:55:36;28.40;99.90
16964;DHT22;8598;50.508;10.436;2022-07-22T07:58:05;28.00;99.90
16964;DHT22;8598;50.508;10.436;2022-07-22T08:00:31;27.90;99.90
16964;DHT22;8598;50.508;10.436;2022-07-22T08:02:59;27.40;99.90
16964;DHT22;8598;50.508;10.436;2022-07-22T08:05:26;27.40;99.90
16964;DHT22;8598;50.508;10.436;2022-07-22T08:07:53;27.60;99.90
16964;DHT22;8598;50.508;10.436;2022-07-22T08:10:20;27.50;99.90
16964;DHT22;8598;50.508;10.436;2022-07-22T08:12:49;28.30;99.90
16964;DHT22;8598;50.508;10.436;2022-07-22T08:15:16;27.80;99.90
16964;DHT22;8598;50.508;10.436;2022-07-22T08:17:42;26.90;99.90
16964;DHT22;8598;50.508;10.436;2022-07-22T08:20:09;26.60;99.90
16964;DHT22;8598;50.508;10.436;2022-07-22T08:22:36;26.30;99.90
16964;DHT22;8598;50.508;10.436;2022-07-22T08:25:03;26.50;99.90
16964;DHT22;8598;50.508;10.436;2022-07-22T08:27:30;26.20;99.90
16964;DHT22;8598;50.508;10.436;2022-07-22T08:29:58;26.00;99.90
16964;DHT22;8598;50.508;10.436;2022-07-22T08:32:25;26.50;99.90
16964;DHT22;8598;50.508;10.436;2022-07-22T08:34:52;27.00;99.90
16964;DHT22;8598;50.508;10.436;2022-07-22T08:37:18;27.70;99.90
16964;DHT22;8598;50.508;10.436;2022-07-22T08:39:45;28.10;99.90
16964;DHT22;8598;50.508;10.436;2022-07-22T08:42:11;27.00;99.90
16964;DHT22;8598;50.508;10.436;2022-07-22T08:44:39;26.80;99.90
16964;DHT22;8598;50.508;10.436;2022-07-22T08:47:07;27.10;99.90
16964;DHT22;8598;50.508;10.436;2022-07-22T08:49:34;28.10;99.90
16964;DHT22;8598;50.508;10.436;2022-07-22T08:52:01;28.90;99.90
16964;DHT22;8598;50.508;10.436;2022-07-22T08:54:28;28.60;99.90
16964;DHT22;8598;50.508;10.436;2022-07-22T08:56:54;27.20;99.90
16964;DHT22;8598;50.508;10.436;2022-07-22T08:59:21;27.70;99.90
16964;DHT22;8598;50.508;10.436;2022-07-22T09:02:04;27.20;99.90
16964;DHT22;8598;50.508;10.436;2022-07-22T09:04:50;26.40;99.90
16964;DHT22;8598;50.508;10.436;2022-07-22T09:07:27;26.70;99.90
16964;DHT22;8598;50.508;10.436;2022-07-22T09:09:54;27.20;99.90
16964;DHT22;8598;50.508;10.436;2022-07-22T09:12:22;27.50;99.90
16964;DHT22;8598;50.508;10.436;2022-07-22T09:14:49;27.70;99.90
16964;DHT22;8598;50.508;10.436;2022-07-22T09:17:24;27.30;99.90
16964;DHT22;8598;50.508;10.436;2022-07-22T09:19:52;26.40;99.90
16964;DHT22;8598;50.508;10.436;2022-07-22T09:22:37;26.80;99.90
16964;DHT22;8598;50.508;10.436;2022-07-22T09:25:22;26.80;99.90
16964;DHT22;8598;50.508;10.436;2022-07-22T09:27:50;27.00;99.90
16964;DHT22;8598;50.508;10.436;2022-07-22T09:30:19;26.60;99.90
16964;DHT22;8598;50.508;10.436;2022-07-22T09:32:46;26.70;99.90
16964;DHT22;8598;50.508;10.436;2022-07-22T09:35:15;26.90;99.90
16964;DHT22;8598;50.508;10.436;2022-07-22T09:37:51;27.20;99.90
16964;DHT22;8598;50.508;10.436;2022-07-22T09:40:19;27.30;99.90
16964;DHT22;8598;50.508;10.436;2022-07-22T09:42:49;26.90;99.90
16964;DHT22;8598;50.508;10.436;2022-07-22T09:45:17;26.60;99.90
16964;DHT22;8598;50.508;10.436;2022-07-22T09:47:44;26.70;99.90
16964;DHT22;8598;50.508;10.436;2022-07-22T09:50:17;26.70;99.90
16964;DHT22;8598;50.508;10.436;2022-07-22T09:52:48;26.60;99.90
16964;DHT22;8598;50.508;10.436;2022-07-22T09:55:16;26.30;99.90
16964;DHT22;8598;50.508;10.436;2022-07-22T09:57:43;26.40;99.90
16964;DHT22;8598;50.508;10.436;2022-07-22T10:00:11;26.50;99.90
16964;DHT22;8598;50.508;10.436;2022-07-22T10:02:44;26.50;99.90
16964;DHT22;8598;50.508;10.436;2022-07-22T10:05:12;27.20;99.90
16964;DHT22;8598;50.508;10.436;2022-07-22T10:07:41;26.60;99.90
16964;DHT22;8598;50.508;10.436;2022-07-22T10:10:12;26.50;99.90
16964;DHT22;8598;50.508;10.436;2022-07-22T10:12:40;26.90;99.90
16964;DHT22;8598;50.508;10.436;2022-07-22T10:15:08;27.00;99.90
16964;DHT22;8598;50.508;10.436;2022-07-22T10:17:36;26.80;99.90
16964;DHT22;8598;50.508;10.436;2022-07-22T10:20:05;26.80;99.90
16964;DHT22;8598;50.508;10.436;2022-07-22T10:22:59;26.80;99.90
16964;DHT22;8598;50.508;10.436;2022-07-22T10:25:28;26.50;99.90
16964;DHT22;8598;50.508;10.436;2022-07-22T10:27:57;27.20;99.90
16964;DHT22;8598;50.508;10.436;2022-07-22T10:30:26;27.50;99.90
16964;DHT22;8598;50.508;10.436;2022-07-22T10:33:08;27.30;99.90
16964;DHT22;8598;50.508;10.436;2022-07-22T10:35:36;27.30;99.90
16964;DHT22;8598;50.508;10.436;2022-07-22T10:38:07;27.60;99.90
16964;DHT22;8598;50.508;10.436;2022-07-22T10:40:50;28.00;99.90
16964;DHT22;8598;50.508;10.436;2022-07-22T10:43:18;27.80;99.90
16964;DHT22;8598;50.508;10.436;2022-07-22T10:45:47;27.80;99.90
16964;DHT22;8598;50.508;10.436;2022-07-22T10:48:16;27.80;99.90
16964;DHT22;8598;50.508;10.436;2022-07-22T10:50:47;27.80;99.90
16964;DHT22;8598;50.508;10.436;2022-07-22T10:53:19;27.70;99.90
16964;DHT22;8598;50.508;10.436;2022-07-22T10:56:05;27.60;99.90
16964;DHT22;8598;50.508;10.436;2022-07-22T10:59:01;27.90;99.90
16964;DHT22;8598;50.508;10.436;2022-07-22T11:01:33;27.70;99.90
16964;DHT22;8598;50.508;10.436;2022-07-22T11:04:09;28.10;99.90
16964;DHT22;8598;50.508;10.436;2022-07-22T11:06:36;28.10;99.90
16964;DHT22;8598;50.508;10.436;2022-07-22T11:09:06;27.70;99.90
16964;DHT22;8598;50.508;10.436;2022-07-22T11:11:36;27.80;99.90
16964;DHT22;8598;50.508;10.436;2022-07-22T11:14:11;27.70;99.90
16964;DHT22;8598;50.508;10.436;2022-07-22T11:16:38;28.00;99.90
16964;DHT22;8598;50.508;10.436;2022-07-22T11:19:05;28.10;99.90
16964;DHT22;8598;50.508;10.436;2022-07-22T11:21:33;28.20;99.90
16964;DHT22;8598;50.508;10.436;2022-07-22T11:24:03;28.40;99.90
16964;DHT22;8598;50.508;10.436;2022-07-22T11:26:36;28.50;99.90
16964;DHT22;8598;50.508;10.436;2022-07-22T11:29:03;28.60;99.90
16964;DHT22;8598;50.508;10.436;2022-07-22T11:31:31;28.80;99.90
16964;DHT22;8598;50.508;10.436;2022-07-22T11:34:05;28.90;99.90
16964;DHT22;8598;50.508;10.436;2022-07-22T11:36:33;29.10;99.90
16964;DHT22;8598;50.508;10.436;2022-07-22T11:39:00;28.80;99.90
16964;DHT22;8598;50.508;10.436;2022-07-22T11:41:29;28.90;99.90
16964;DHT22;8598;50.508;10.436;2022-07-22T11:43:57;29.10;99.90
16964;DHT22;8598;50.508;10.436;2022-07-22T11:46:24;28.70;99.90
16964;DHT22;8598;50.508;10.436;2022-07-22T11:48:52;28.50;99.90
16964;DHT22;8598;50.508;10.436;2022-07-22T11:51:19;28.30;99.90
16964;DHT22;8598;50.508;10.436;2022-07-22T11:53:45;28.00;99.90
16964;DHT22;8598;50.508;10.436;2022-07-22T11:56:12;28.00;99.90
16964;DHT22;8598;50.508;10.436;2022-07-22T11:58:41;28.20;99.90
16964;DHT22;8598;50.508;10.436;2022-07-22T12:01:10;28.40;99.90
16964;DHT22;8598;50.508;10.436;2022-07-22T12:03:39;28.50;99.90
16964;DHT22;8598;50.508;10.436;2022-07-22T12:06:09;28.90;99.90
16964;DHT22;8598;50.508;10.436;2022-07-22T12:08:40;29.10;99.90
16964;DHT22;8598;50.508;10.436;2022-07-22T12:11:07;29.30;99.90
16964;DHT22;8598;50.508;10.436;2022-07-22T12:13:35;29.20;99.90
16964;DHT22;8598;50.508;10.436;2022-07-22T12:18:56;29.00;99.90
16964;DHT22;8598;50.508;10.436;2022-07-22T12:21:25;28.50;99.90
16964;DHT22;8598;50.508;10.436;2022-07-22T12:23:54;28.70;99.90
16964;DHT22;8598;50.508;10.436;2022-07-22T12:26:40;28.80;99.90
16964;DHT22;8598;50.508;10.436;2022-07-22T12:29:14;29.10;99.90
16964;DHT22;8598;50.508;10.436;2022-07-22T12:31:42;29.60;99.90
16964;DHT22;8598;50.508;10.436;2022-07-22T12:34:10;29.20;99.50
16964;DHT22;8598;50.508;10.436;2022-07-22T12:36:37;29.30;99.30
16964;DHT22;8598;50.508;10.436;2022-07-22T12:39:12;29.30;98.90
16964;DHT22;8598;50.508;10.436;2022-07-22T12:41:45;29.20;98.60
16964;DHT22;8598;50.508;10.436;2022-07-22T12:44:15;29.20;99.20
16964;DHT22;8598;50.508;10.436;2022-07-22T12:46:47;29.60;98.50
16964;DHT22;8598;50.508;10.436;2022-07-22T12:49:16;29.40;98.30
16964;DHT22;8598;50.508;10.436;2022-07-22T12:52:08;29.10;99.00
16964;DHT22;8598;50.508;10.436;2022-07-22T12:54:35;29.60;99.20
16964;DHT22;8598;50.508;10.436;2022-07-22T12:57:03;29.90;98.90
16964;DHT22;8598;50.508;10.436;2022-07-22T12:59:30;30.00;98.90
16964;DHT22;8598;50.508;10.436;2022-07-22T13:01:56;30.10;98.40
16964;DHT22;8598;50.508;10.436;2022-07-22T13:04:27;30.00;97.70
16964;DHT22;8598;50.508;10.436;2022-07-22T13:06:53;30.00;98.00
16964;DHT22;8598;50.508;10.436;2022-07-22T13:09:20;29.80;98.00
16964;DHT22;8598;50.508;10.436;2022-07-22T13:11:47;30.10;98.10
16964;DHT22;8598;50.508;10.436;2022-07-22T13:14:14;30.40;98.20
16964;DHT22;8598;50.508;10.436;2022-07-22T13:16:41;30.20;97.90
16964;DHT22;8598;50.508;10.436;2022-07-22T13:19:07;30.00;97.50
16964;DHT22;8598;50.508;10.436;2022-07-22T13:21:35;29.90;98.10
16964;DHT22;8598;50.508;10.436;2022-07-22T13:24:02;29.60;97.20
16964;DHT22;8598;50.508;10.436;2022-07-22T13:26:29;29.60;97.70
16964;DHT22;8598;50.508;10.436;2022-07-22T13:28:56;29.30;97.60
16964;DHT22;8598;50.508;10.436;2022-07-22T13:31:22;29.10;97.80
16964;DHT22;8598;50.508;10.436;2022-07-22T13:33:49;29.00;98.00
16964;DHT22;8598;50.508;10.436;2022-07-22T13:36:16;29.00;98.40
16964;DHT22;8598;50.508;10.436;2022-07-22T13:38:44;29.40;98.40
16964;DHT22;8598;50.508;10.436;2022-07-22T13:41:12;29.60;98.30
16964;DHT22;8598;50.508;10.436;2022-07-22T13:43:43;29.10;98.00
16964;DHT22;8598;50.508;10.436;2022-07-22T13:46:10;28.60;98.70
16964;DHT22;8598;50.508;10.436;2022-07-22T13:48:37;28.50;99.30
16964;DHT22;8598;50.508;10.436;2022-07-22T13:51:04;28.60;99.10
16964;DHT22;8598;50.508;10.436;2022-07-22T13:53:31;28.70;99.20
16964;DHT22;8598;50.508;10.436;2022-07-22T13:56:00;28.90;99.00
16964;DHT22;8598;50.508;10.436;2022-07-22T13:58:26;29.30;98.30
16964;DHT22;8598;50.508;10.436;2022-07-22T14:00:53;29.20;97.90
16964;DHT22;8598;50.508;10.436;2022-07-22T14:03:20;29.30;98.30
16964;DHT22;8598;50.508;10.436;2022-07-22T14:05:47;29.70;97.90
16964;DHT22;8598;50.508;10.436;2022-07-22T14:08:13;29.80;97.50
16964;DHT22;8598;50.508;10.436;2022-07-22T14:10:40;30.00;97.90
16964;DHT22;8598;50.508;10.436;2022-07-22T14:13:08;29.90;97.30
16964;DHT22;8598;50.508;10.436;2022-07-22T14:15:38;29.50;96.90
16964;DHT22;8598;50.508;10.436;2022-07-22T14:18:04;29.40;96.90
16964;DHT22;8598;50.508;10.436;2022-07-22T14:20:32;29.20;97.00
16964;DHT22;8598;50.508;10.436;2022-07-22T14:22:59;29.10;97.20
16964;DHT22;8598;50.508;10.436;2022-07-22T14:25:27;29.00;97.80
16964;DHT22;8598;50.508;10.436;2022-07-22T14:27:53;29.40;97.70
16964;DHT22;8598;50.508;10.436;2022-07-22T14:30:21;29.60;96.80
16964;DHT22;8598;50.508;10.436;2022-07-22T14:32:48;29.90;96.90
16964;DHT22;8598;50.508;10.436;2022-07-22T14:35:15;30.00;96.60
16964;DHT22;8598;50.508;10.436;2022-07-22T14:37:41;30.30;96.20
16964;DHT22;8598;50.508;10.436;2022-07-22T14:40:09;30.10;96.00
16964;DHT22;8598;50.508;10.436;2022-07-22T14:42:36;30.50;96.10
16964;DHT22;8598;50.508;10.436;2022-07-22T14:45:03;30.50;95.40
16964;DHT22;8598;50.508;10.436;2022-07-22T14:47:31;30.70;95.40
16964;DHT22;8598;50.508;10.436;2022-07-22T14:49:58;30.50;95.30
16964;DHT22;8598;50.508;10.436;2022-07-22T14:52:25;30.80;95.60
16964;DHT22;8598;50.508;10.436;2022-07-22T14:54:51;30.90;94.90
16964;DHT22;8598;50.508;10.436;2022-07-22T14:57:18;30.60;95.00
16964;DHT22;8598;50.508;10.436;2022-07-22T14:59:44;30.20;94.60
16964;DHT22;8598;50.508;10.436;2022-07-22T15:02:11;29.90;95.30
16964;DHT22;8598;50.508;10.436;2022-07-22T15:04:39;30.10;95.80
16964;DHT22;8598;50.508;10.436;2022-07-22T15:07:06;30.30;95.20
16964;DHT22;8598;50.508;10.436;2022-07-22T15:09:33;30.40;95.30
16964;DHT22;8598;50.508;10.436;2022-07-22T15:12:00;30.40;95.70
16964;DHT22;8598;50.508;10.436;2022-07-22T15:14:26;30.40;95.20
16964;DHT22;8598;50.508;10.436;2022-07-22T15:16:53;30.60;94.70
16964;DHT22;8598;50.508;10.436;2022-07-22T15:19:22;30.50;95.00
16964;DHT22;8598;50.508;10.436;2022-07-22T15:21:53;30.40;94.10
16964;DHT22;8598;50.508;10.436;2022-07-22T15:24:20;30.40;94.80
16964;DHT22;8598;50.508;10.436;2022-07-22T15:26:46;30.30;94.20
16964;DHT22;8598;50.508;10.436;2022-07-22T15:29:13;30.30;94.50
16964;DHT22;8598;50.508;10.436;2022-07-22T15:31:42;30.30;94.80
16964;DHT22;8598;50.508;10.436;2022-07-22T15:34:09;30.50;94.40
16964;DHT22;8598;50.508;10.436;2022-07-22T15:36:35;30.50;94.40
16964;DHT22;8598;50.508;10.436;2022-07-22T15:39:03;30.50;94.20